sensor_id;sensor_type;location;lat;lon;timestamp;P1;durP1;ratioP1;P2;durP2;ratioP2
74243;SDS011;62600;55.732;37.662;2022-08-21T00:01:03;50.67;;;33.38;;
74243;SDS011;62600;55.732;37.662;2022-08-21T00:03:31;46.25;;;32.88;;
74243;SDS011;62600;55.732;37.662;2022-08-21T00:05:57;50.65;;;33.42;;
74243;SDS011;62600;55.732;37.662;2022-08-21T00:08:23;46.08;;;31.27;;
74243;SDS011;62600;55.732;37.662;2022-08-21T00:10:49;46.50;;;32.58;;
74243;SDS011;62600;55.732;37.662;2022-08-21T00:13:15;45.67;;;31.40;;
74243;SDS011;62600;55.732;37.662;2022-08-21T00:15:42;52.05;;;33.80;;
74243;SDS011;62600;55.732;37.662;2022-08-21T00:18:08;48.25;;;33.97;;
74243;SDS011;62600;55.732;37.662;2022-08-21T00:20:35;46.55;;;32.47;;
74243;SDS011;62600;55.732;37.662;2022-08-21T00:23:02;48.40;;;33.28;;
74243;SDS011;62600;55.732;37.662;2022-08-21T00:25:28;49.58;;;33.30;;
74243;SDS011;62600;55.732;37.662;2022-08-21T00:27:53;46.90;;;35.28;;
74243;SDS011;62600;55.732;37.662;2022-08-21T00:30:20;48.95;;;34.22;;
74243;SDS011;62600;55.732;37.662;2022-08-21T00:32:47;50.35;;;35.55;;
74243;SDS011;62600;55.732;37.662;2022-08-21T00:35:15;46.58;;;32.40;;
74243;SDS011;62600;55.732;37.662;2022-08-21T00:37:42;43.92;;;32.00;;
74243;SDS011;62600;55.732;37.662;2022-08-21T00:40:09;49.20;;;32.58;;
74243;SDS011;62600;55.732;37.662;2022-08-21T00:42:38;48.75;;;31.63;;
74243;SDS011;62600;55.732;37.662;2022-08-21T00:45:08;50.35;;;34.63;;
74243;SDS011;62600;55.732;37.662;2022-08-21T00:47:35;43.92;;;31.42;;
74243;SDS011;62600;55.732;37.662;2022-08-21T00:50:01;45.03;;;33.00;;
74243;SDS011;62600;55.732;37.662;2022-08-21T00:52:28;46.90;;;32.45;;
74243;SDS011;62600;55.732;37.662;2022-08-21T00:54:57;42.72;;;31.63;;
74243;SDS011;62600;55.732;37.662;2022-08-21T00:57:28;45.03;;;31.27;;
74243;SDS011;62600;55.732;37.662;2022-08-21T00:59:58;48.55;;;32.55;;
74243;SDS011;62600;55.732;37.662;2022-08-21T01:02:26;46.10;;;31.38;;
74243;SDS011;62600;55.732;37.662;2022-08-21T01:04:52;45.92;;;30.50;;
74243;SDS011;62600;55.732;37.662;2022-08-21T01:07:17;48.90;;;30.33;;
74243;SDS011;62600;55.732;37.662;2022-08-21T01:09:45;45.55;;;29.98;;
74243;SDS011;62600;55.732;37.662;2022-08-21T01:12:12;44.90;;;30.00;;
74243;SDS011;62600;55.732;37.662;2022-08-21T01:14:39;38.67;;;29.92;;
74243;SDS011;62600;55.732;37.662;2022-08-21T01:17:06;42.25;;;29.05;;
74243;SDS011;62600;55.732;37.662;2022-08-21T01:19:33;37.25;;;28.15;;
74243;SDS011;62600;55.732;37.662;2022-08-21T01:21:59;42.75;;;28.83;;
74243;SDS011;62600;55.732;37.662;2022-08-21T01:24:25;39.80;;;27.95;;
74243;SDS011;62600;55.732;37.662;2022-08-21T01:26:50;40.00;;;28.00;;
74243;SDS011;62600;55.732;37.662;2022-08-21T01:29:39;45.38;;;29.30;;
74243;SDS011;62600;55.732;37.662;2022-08-21T01:32:19;37.72;;;27.55;;
74243;SDS011;62600;55.732;37.662;2022-08-21T01:34:45;41.13;;;28.25;;
74243;SDS011;62600;55.732;37.662;2022-08-21T01:37:13;45.47;;;29.70;;
74243;SDS011;62600;55.732;37.662;2022-08-21T01:39:40;40.40;;;28.25;;
74243;SDS011;62600;55.732;37.662;2022-08-21T01:42:06;40.47;;;28.52;;
74243;SDS011;62600;55.732;37.662;2022-08-21T01:44:32;37.90;;;26.33;;
74243;SDS011;62600;55.732;37.662;2022-08-21T01:46:59;41.75;;;27.33;;
74243;SDS011;62600;55.732;37.662;2022-08-21T01:49:27;39.70;;;27.52;;
74243;SDS011;62600;55.732;37.662;2022-08-21T01:51:53;42.53;;;27.35;;
74243;SDS011;62600;55.732;37.662;2022-08-21T01:54:18;40.70;;;26.85;;
74243;SDS011;62600;55.732;37.662;2022-08-21T01:56:47;42.33;;;26.63;;
74243;SDS011;62600;55.732;37.662;2022-08-21T01:59:15;36.42;;;24.98;;
74243;SDS011;62600;55.732;37.662;2022-08-21T02:01:41;37.92;;;25.63;;
74243;SDS011;62600;55.732;37.662;2022-08-21T02:04:08;35.03;;;25.23;;
74243;SDS011;62600;55.732;37.662;2022-08-21T02:06:35;38.25;;;25.17;;
74243;SDS011;62600;55.732;37.662;2022-08-21T02:09:01;38.80;;;25.80;;
74243;SDS011;62600;55.732;37.662;2022-08-21T02:11:31;40.88;;;26.23;;
74243;SDS011;62600;55.732;37.662;2022-08-21T02:13:57;35.80;;;24.42;;
74243;SDS011;62600;55.732;37.662;2022-08-21T02:16:23;36.15;;;25.70;;
74243;SDS011;62600;55.732;37.662;2022-08-21T02:18:49;38.95;;;25.95;;
74243;SDS011;62600;55.732;37.662;2022-08-21T02:21:14;33.65;;;23.30;;
74243;SDS011;62600;55.732;37.662;2022-08-21T02:23:40;40.35;;;25.90;;
74243;SDS011;62600;55.732;37.662;2022-08-21T02:26:06;36.63;;;25.33;;
74243;SDS011;62600;55.732;37.662;2022-08-21T02:28:33;36.15;;;24.15;;
74243;SDS011;62600;55.732;37.662;2022-08-21T02:31:00;40.08;;;26.58;;
74243;SDS011;62600;55.732;37.662;2022-08-21T02:33:26;39.80;;;26.45;;
74243;SDS011;62600;55.732;37.662;2022-08-21T02:35:53;37.50;;;25.45;;
74243;SDS011;62600;55.732;37.662;2022-08-21T02:38:20;38.65;;;25.92;;
74243;SDS011;62600;55.732;37.662;2022-08-21T02:40:48;38.13;;;24.73;;
74243;SDS011;62600;55.732;37.662;2022-08-21T02:43:15;37.30;;;25.25;;
74243;SDS011;62600;55.732;37.662;2022-08-21T02:45:42;41.28;;;26.25;;
74243;SDS011;62600;55.732;37.662;2022-08-21T02:48:12;39.10;;;26.10;;
74243;SDS011;62600;55.732;37.662;2022-08-21T02:50:42;41.22;;;26.83;;
74243;SDS011;62600;55.732;37.662;2022-08-21T02:53:10;41.60;;;27.20;;
74243;SDS011;62600;55.732;37.662;2022-08-21T02:55:39;38.70;;;25.40;;
74243;SDS011;62600;55.732;37.662;2022-08-21T02:58:05;40.78;;;26.88;;
74243;SDS011;62600;55.732;37.662;2022-08-21T03:00:33;40.75;;;27.23;;
74243;SDS011;62600;55.732;37.662;2022-08-21T03:03:00;37.53;;;26.05;;
74243;SDS011;62600;55.732;37.662;2022-08-21T03:05:26;40.38;;;25.15;;
74243;SDS011;62600;55.732;37.662;2022-08-21T03:07:53;39.50;;;27.70;;
74243;SDS011;62600;55.732;37.662;2022-08-21T03:10:20;38.40;;;27.15;;
74243;SDS011;62600;55.732;37.662;2022-08-21T03:15:13;38.85;;;26.88;;
74243;SDS011;62600;55.732;37.662;2022-08-21T03:17:40;43.17;;;28.35;;
74243;SDS011;62600;55.732;37.662;2022-08-21T03:20:06;37.35;;;26.52;;
74243;SDS011;62600;55.732;37.662;2022-08-21T03:22:33;41.53;;;28.17;;
74243;SDS011;62600;55.732;37.662;2022-08-21T03:24:59;39.80;;;27.13;;
74243;SDS011;62600;55.732;37.662;2022-08-21T03:27:25;38.10;;;28.13;;
74243;SDS011;62600;55.732;37.662;2022-08-21T03:29:52;41.50;;;28.48;;
74243;SDS011;62600;55.732;37.662;2022-08-21T03:34:44;41.78;;;28.90;;
74243;SDS011;62600;55.732;37.662;2022-08-21T03:37:10;41.25;;;28.98;;
74243;SDS011;62600;55.732;37.662;2022-08-21T03:39:35;40.75;;;29.13;;
74243;SDS011;62600;55.732;37.662;2022-08-21T03:42:01;38.00;;;27.52;;
74243;SDS011;62600;55.732;37.662;2022-08-21T03:44:27;42.42;;;28.95;;
74243;SDS011;62600;55.732;37.662;2022-08-21T03:46:54;41.83;;;29.05;;
74243;SDS011;62600;55.732;37.662;2022-08-21T03:49:21;41.65;;;29.13;;
74243;SDS011;62600;55.732;37.662;2022-08-21T03:51:46;40.08;;;29.65;;
74243;SDS011;62600;55.732;37.662;2022-08-21T03:54:12;40.55;;;29.40;;
74243;SDS011;62600;55.732;37.662;2022-08-21T03:56:37;42.40;;;29.10;;
74243;SDS011;62600;55.732;37.662;2022-08-21T04:01:29;46.15;;;32.55;;
74243;SDS011;62600;55.732;37.662;2022-08-21T04:03:55;42.97;;;30.95;;
74243;SDS011;62600;55.732;37.662;2022-08-21T04:06:20;44.80;;;35.13;;
74243;SDS011;62600;55.732;37.662;2022-08-21T04:08:46;44.15;;;32.33;;
74243;SDS011;62600;55.732;37.662;2022-08-21T04:11:11;44.63;;;33.40;;
74243;SDS011;62600;55.732;37.662;2022-08-21T04:13:37;49.15;;;33.75;;
74243;SDS011;62600;55.732;37.662;2022-08-21T04:16:03;46.85;;;33.53;;
74243;SDS011;62600;55.732;37.662;2022-08-21T04:18:29;44.80;;;32.72;;
74243;SDS011;62600;55.732;37.662;2022-08-21T04:20:55;49.17;;;34.40;;
74243;SDS011;62600;55.732;37.662;2022-08-21T04:23:23;47.65;;;33.03;;
74243;SDS011;62600;55.732;37.662;2022-08-21T04:25:49;45.58;;;31.65;;
74243;SDS011;62600;55.732;37.662;2022-08-21T04:28:16;43.75;;;32.47;;
74243;SDS011;62600;55.732;37.662;2022-08-21T04:30:42;47.10;;;33.75;;
74243;SDS011;62600;55.732;37.662;2022-08-21T04:33:08;46.00;;;33.38;;
74243;SDS011;62600;55.732;37.662;2022-08-21T04:35:33;53.45;;;32.63;;
74243;SDS011;62600;55.732;37.662;2022-08-21T04:37:59;47.40;;;33.22;;
74243;SDS011;62600;55.732;37.662;2022-08-21T04:40:26;53.17;;;35.00;;
74243;SDS011;62600;55.732;37.662;2022-08-21T04:42:58;43.42;;;34.28;;
74243;SDS011;62600;55.732;37.662;2022-08-21T04:45:28;44.85;;;33.85;;
74243;SDS011;62600;55.732;37.662;2022-08-21T04:48:05;50.08;;;34.90;;
74243;SDS011;62600;55.732;37.662;2022-08-21T04:53:34;52.25;;;38.85;;
74243;SDS011;62600;55.732;37.662;2022-08-21T04:56:11;53.80;;;37.97;;
74243;SDS011;62600;55.732;37.662;2022-08-21T04:58:45;51.95;;;36.60;;
74243;SDS011;62600;55.732;37.662;2022-08-21T05:01:14;49.00;;;36.90;;
74243;SDS011;62600;55.732;37.662;2022-08-21T05:03:43;49.65;;;35.08;;
74243;SDS011;62600;55.732;37.662;2022-08-21T05:06:10;50.10;;;36.35;;
74243;SDS011;62600;55.732;37.662;2022-08-21T05:08:38;47.30;;;35.70;;
74243;SDS011;62600;55.732;37.662;2022-08-21T05:11:05;50.30;;;37.55;;
74243;SDS011;62600;55.732;37.662;2022-08-21T05:13:31;44.60;;;36.05;;
74243;SDS011;62600;55.732;37.662;2022-08-21T05:15:57;51.22;;;37.08;;
74243;SDS011;62600;55.732;37.662;2022-08-21T05:18:23;47.25;;;33.67;;
74243;SDS011;62600;55.732;37.662;2022-08-21T05:20:49;42.08;;;34.50;;
74243;SDS011;62600;55.732;37.662;2022-08-21T05:23:15;46.28;;;35.53;;
74243;SDS011;62600;55.732;37.662;2022-08-21T05:25:41;46.45;;;36.25;;
74243;SDS011;62600;55.732;37.662;2022-08-21T05:28:08;49.05;;;36.92;;
74243;SDS011;62600;55.732;37.662;2022-08-21T05:30:34;44.10;;;35.70;;
74243;SDS011;62600;55.732;37.662;2022-08-21T05:33:01;46.47;;;36.17;;
74243;SDS011;62600;55.732;37.662;2022-08-21T05:35:28;44.58;;;37.08;;
74243;SDS011;62600;55.732;37.662;2022-08-21T05:37:55;42.70;;;35.22;;
74243;SDS011;62600;55.732;37.662;2022-08-21T05:40:21;47.13;;;36.85;;
74243;SDS011;62600;55.732;37.662;2022-08-21T05:42:47;51.10;;;36.67;;
74243;SDS011;62600;55.732;37.662;2022-08-21T05:45:12;43.88;;;34.40;;
74243;SDS011;62600;55.732;37.662;2022-08-21T05:47:38;46.35;;;36.08;;
74243;SDS011;62600;55.732;37.662;2022-08-21T05:52:30;44.55;;;35.20;;
74243;SDS011;62600;55.732;37.662;2022-08-21T05:54:56;44.88;;;37.25;;
74243;SDS011;62600;55.732;37.662;2022-08-21T05:57:21;47.97;;;37.95;;
74243;SDS011;62600;55.732;37.662;2022-08-21T05:59:48;47.80;;;36.17;;
74243;SDS011;62600;55.732;37.662;2022-08-21T06:02:14;45.38;;;36.90;;
74243;SDS011;62600;55.732;37.662;2022-08-21T06:04:41;45.05;;;38.17;;
74243;SDS011;62600;55.732;37.662;2022-08-21T06:07:07;44.17;;;35.28;;
74243;SDS011;62600;55.732;37.662;2022-08-21T06:12:02;47.80;;;35.97;;
74243;SDS011;62600;55.732;37.662;2022-08-21T06:14:29;48.75;;;36.67;;
74243;SDS011;62600;55.732;37.662;2022-08-21T06:17:00;49.50;;;36.55;;
74243;SDS011;62600;55.732;37.662;2022-08-21T06:19:28;49.97;;;34.88;;
74243;SDS011;62600;55.732;37.662;2022-08-21T06:21:53;47.47;;;37.97;;
74243;SDS011;62600;55.732;37.662;2022-08-21T06:24:19;48.67;;;37.95;;
74243;SDS011;62600;55.732;37.662;2022-08-21T06:26:44;50.53;;;37.70;;
74243;SDS011;62600;55.732;37.662;2022-08-21T06:29:12;48.38;;;38.38;;
74243;SDS011;62600;55.732;37.662;2022-08-21T06:31:41;50.58;;;38.83;;
74243;SDS011;62600;55.732;37.662;2022-08-21T06:34:07;51.83;;;40.78;;
74243;SDS011;62600;55.732;37.662;2022-08-21T06:36:32;50.17;;;36.03;;
74243;SDS011;62600;55.732;37.662;2022-08-21T06:38:57;46.08;;;35.17;;
74243;SDS011;62600;55.732;37.662;2022-08-21T06:41:23;45.78;;;36.92;;
74243;SDS011;62600;55.732;37.662;2022-08-21T06:43:48;47.08;;;37.70;;
74243;SDS011;62600;55.732;37.662;2022-08-21T06:46:14;43.45;;;35.63;;
74243;SDS011;62600;55.732;37.662;2022-08-21T06:48:39;46.58;;;37.30;;
74243;SDS011;62600;55.732;37.662;2022-08-21T06:51:05;50.08;;;35.85;;
74243;SDS011;62600;55.732;37.662;2022-08-21T06:53:30;44.58;;;34.28;;
74243;SDS011;62600;55.732;37.662;2022-08-21T06:55:56;48.05;;;35.38;;
74243;SDS011;62600;55.732;37.662;2022-08-21T06:58:21;46.42;;;35.30;;
74243;SDS011;62600;55.732;37.662;2022-08-21T07:00:47;44.97;;;32.40;;
74243;SDS011;62600;55.732;37.662;2022-08-21T07:03:21;42.38;;;34.75;;
74243;SDS011;62600;55.732;37.662;2022-08-21T07:05:47;45.33;;;33.72;;
74243;SDS011;62600;55.732;37.662;2022-08-21T07:08:13;46.60;;;34.80;;
74243;SDS011;62600;55.732;37.662;2022-08-21T07:10:38;43.83;;;35.45;;
74243;SDS011;62600;55.732;37.662;2022-08-21T07:13:04;46.40;;;34.67;;
74243;SDS011;62600;55.732;37.662;2022-08-21T07:15:30;39.10;;;32.28;;
74243;SDS011;62600;55.732;37.662;2022-08-21T07:20:23;45.10;;;34.45;;
74243;SDS011;62600;55.732;37.662;2022-08-21T07:22:48;47.03;;;36.42;;
74243;SDS011;62600;55.732;37.662;2022-08-21T07:25:14;45.05;;;35.95;;
74243;SDS011;62600;55.732;37.662;2022-08-21T07:27:39;46.53;;;35.53;;
74243;SDS011;62600;55.732;37.662;2022-08-21T07:30:05;41.97;;;33.50;;
74243;SDS011;62600;55.732;37.662;2022-08-21T07:32:31;41.88;;;33.83;;
74243;SDS011;62600;55.732;37.662;2022-08-21T07:34:57;41.80;;;34.22;;
74243;SDS011;62600;55.732;37.662;2022-08-21T07:37:22;39.70;;;32.38;;
74243;SDS011;62600;55.732;37.662;2022-08-21T07:39:48;37.40;;;30.27;;
74243;SDS011;62600;55.732;37.662;2022-08-21T07:42:14;41.25;;;31.40;;
74243;SDS011;62600;55.732;37.662;2022-08-21T07:44:40;40.42;;;34.38;;
74243;SDS011;62600;55.732;37.662;2022-08-21T07:47:06;42.10;;;30.10;;
74243;SDS011;62600;55.732;37.662;2022-08-21T07:49:31;42.60;;;31.77;;
74243;SDS011;62600;55.732;37.662;2022-08-21T07:51:57;43.58;;;30.85;;
74243;SDS011;62600;55.732;37.662;2022-08-21T07:54:23;41.08;;;32.35;;
74243;SDS011;62600;55.732;37.662;2022-08-21T07:56:48;40.08;;;29.63;;
74243;SDS011;62600;55.732;37.662;2022-08-21T07:59:14;38.08;;;29.83;;
74243;SDS011;62600;55.732;37.662;2022-08-21T08:01:39;35.33;;;26.88;;
74243;SDS011;62600;55.732;37.662;2022-08-21T08:04:05;35.22;;;27.48;;
74243;SDS011;62600;55.732;37.662;2022-08-21T08:06:31;34.15;;;26.63;;
74243;SDS011;62600;55.732;37.662;2022-08-21T08:08:56;36.95;;;24.73;;
74243;SDS011;62600;55.732;37.662;2022-08-21T08:11:21;33.67;;;24.05;;
74243;SDS011;62600;55.732;37.662;2022-08-21T08:13:48;31.20;;;22.17;;
74243;SDS011;62600;55.732;37.662;2022-08-21T08:16:16;31.85;;;22.05;;
74243;SDS011;62600;55.732;37.662;2022-08-21T08:18:42;30.63;;;22.67;;
74243;SDS011;62600;55.732;37.662;2022-08-21T08:21:09;34.05;;;22.40;;
74243;SDS011;62600;55.732;37.662;2022-08-21T08:23:35;31.00;;;22.27;;
74243;SDS011;62600;55.732;37.662;2022-08-21T08:26:01;33.95;;;21.73;;
74243;SDS011;62600;55.732;37.662;2022-08-21T08:28:30;30.27;;;22.23;;
74243;SDS011;62600;55.732;37.662;2022-08-21T08:30:57;33.00;;;23.65;;
74243;SDS011;62600;55.732;37.662;2022-08-21T08:33:23;34.95;;;21.65;;
74243;SDS011;62600;55.732;37.662;2022-08-21T08:35:49;20.92;;;16.55;;
74243;SDS011;62600;55.732;37.662;2022-08-21T08:38:16;25.70;;;17.92;;
74243;SDS011;62600;55.732;37.662;2022-08-21T08:43:28;24.45;;;17.25;;
74243;SDS011;62600;55.732;37.662;2022-08-21T08:45:55;24.65;;;16.70;;
74243;SDS011;62600;55.732;37.662;2022-08-21T08:49:07;26.25;;;16.60;;
74243;SDS011;62600;55.732;37.662;2022-08-21T08:51:24;22.08;;;15.38;;
74243;SDS011;62600;55.732;37.662;2022-08-21T08:54:06;26.23;;;15.93;;
74243;SDS011;62600;55.732;37.662;2022-08-21T08:56:34;25.73;;;15.35;;
74243;SDS011;62600;55.732;37.662;2022-08-21T08:59:07;24.17;;;15.77;;
74243;SDS011;62600;55.732;37.662;2022-08-21T09:01:38;24.63;;;14.80;;
74243;SDS011;62600;55.732;37.662;2022-08-21T09:04:04;19.10;;;12.18;;
74243;SDS011;62600;55.732;37.662;2022-08-21T09:12:04;18.77;;;14.20;;
74243;SDS011;62600;55.732;37.662;2022-08-21T09:25:26;17.90;;;12.57;;
74243;SDS011;62600;55.732;37.662;2022-08-21T09:27:55;22.60;;;14.18;;
74243;SDS011;62600;55.732;37.662;2022-08-21T09:30:23;20.02;;;13.05;;
74243;SDS011;62600;55.732;37.662;2022-08-21T09:32:52;21.75;;;13.73;;
74243;SDS011;62600;55.732;37.662;2022-08-21T09:35:19;19.77;;;13.48;;
74243;SDS011;62600;55.732;37.662;2022-08-21T09:37:51;18.67;;;12.65;;
74243;SDS011;62600;55.732;37.662;2022-08-21T09:46:01;15.70;;;12.32;;
74243;SDS011;62600;55.732;37.662;2022-08-21T09:48:28;19.23;;;12.40;;
74243;SDS011;62600;55.732;37.662;2022-08-21T09:51:07;17.30;;;11.48;;
74243;SDS011;62600;55.732;37.662;2022-08-21T09:53:37;19.67;;;11.73;;
74243;SDS011;62600;55.732;37.662;2022-08-21T09:59:12;19.67;;;14.20;;
74243;SDS011;62600;55.732;37.662;2022-08-21T10:01:58;18.98;;;12.43;;
74243;SDS011;62600;55.732;37.662;2022-08-21T10:04:30;19.08;;;13.20;;
74243;SDS011;62600;55.732;37.662;2022-08-21T10:07:07;17.38;;;12.27;;
74243;SDS011;62600;55.732;37.662;2022-08-21T10:09:35;19.42;;;13.75;;
74243;SDS011;62600;55.732;37.662;2022-08-21T10:14:42;22.80;;;10.82;;
74243;SDS011;62600;55.732;37.662;2022-08-21T10:20:07;15.65;;;9.30;;
74243;SDS011;62600;55.732;37.662;2022-08-21T10:25:37;16.70;;;9.02;;
74243;SDS011;62600;55.732;37.662;2022-08-21T10:33:57;15.75;;;9.55;;
74243;SDS011;62600;55.732;37.662;2022-08-21T10:37:35;14.73;;;8.75;;
74243;SDS011;62600;55.732;37.662;2022-08-21T10:43:07;14.48;;;8.27;;
74243;SDS011;62600;55.732;37.662;2022-08-21T10:48:14;15.25;;;9.25;;
74243;SDS011;62600;55.732;37.662;2022-08-21T10:50:48;15.23;;;8.60;;
74243;SDS011;62600;55.732;37.662;2022-08-21T10:58:32;7.43;;;4.93;;
74243;SDS011;62600;55.732;37.662;2022-08-21T11:01:12;12.65;;;4.80;;
74243;SDS011;62600;55.732;37.662;2022-08-21T11:03:43;6.93;;;4.55;;
74243;SDS011;62600;55.732;37.662;2022-08-21T11:06:27;8.80;;;5.28;;
74243;SDS011;62600;55.732;37.662;2022-08-21T11:09:09;9.75;;;5.93;;
74243;SDS011;62600;55.732;37.662;2022-08-21T11:11:41;10.88;;;5.57;;
74243;SDS011;62600;55.732;37.662;2022-08-21T11:17:20;11.98;;;6.45;;
74243;SDS011;62600;55.732;37.662;2022-08-21T11:19:52;15.25;;;7.78;;
74243;SDS011;62600;55.732;37.662;2022-08-21T11:25:37;12.63;;;7.30;;
74243;SDS011;62600;55.732;37.662;2022-08-21T11:28:10;11.88;;;8.50;;
74243;SDS011;62600;55.732;37.662;2022-08-21T11:41:33;17.38;;;11.50;;
74243;SDS011;62600;55.732;37.662;2022-08-21T11:47:08;21.35;;;11.80;;
74243;SDS011;62600;55.732;37.662;2022-08-21T12:00:30;14.52;;;9.35;;
74243;SDS011;62600;55.732;37.662;2022-08-21T12:03:05;15.57;;;9.85;;
74243;SDS011;62600;55.732;37.662;2022-08-21T12:05:38;13.70;;;9.50;;
74243;SDS011;62600;55.732;37.662;2022-08-21T12:08:09;14.80;;;8.88;;
74243;SDS011;62600;55.732;37.662;2022-08-21T12:10:41;14.18;;;9.63;;
74243;SDS011;62600;55.732;37.662;2022-08-21T12:13:34;15.95;;;9.48;;
74243;SDS011;62600;55.732;37.662;2022-08-21T12:18:31;12.93;;;8.35;;
74243;SDS011;62600;55.732;37.662;2022-08-21T12:23:48;16.25;;;8.65;;
74243;SDS011;62600;55.732;37.662;2022-08-21T12:26:48;13.48;;;7.72;;
74243;SDS011;62600;55.732;37.662;2022-08-21T12:29:25;15.60;;;8.00;;
74243;SDS011;62600;55.732;37.662;2022-08-21T12:34:33;15.00;;;8.02;;
74243;SDS011;62600;55.732;37.662;2022-08-21T12:37:10;17.10;;;7.45;;
74243;SDS011;62600;55.732;37.662;2022-08-21T12:39:44;11.52;;;7.43;;
74243;SDS011;62600;55.732;37.662;2022-08-21T12:42:30;12.93;;;7.57;;
74243;SDS011;62600;55.732;37.662;2022-08-21T12:45:05;14.25;;;7.70;;
74243;SDS011;62600;55.732;37.662;2022-08-21T12:47:49;16.88;;;7.88;;
74243;SDS011;62600;55.732;37.662;2022-08-21T12:50:21;12.35;;;7.75;;
74243;SDS011;62600;55.732;37.662;2022-08-21T12:53:07;17.13;;;8.98;;
74243;SDS011;62600;55.732;37.662;2022-08-21T12:55:40;13.93;;;8.43;;
74243;SDS011;62600;55.732;37.662;2022-08-21T12:58:16;19.13;;;8.70;;
74243;SDS011;62600;55.732;37.662;2022-08-21T13:03:29;11.27;;;6.80;;
74243;SDS011;62600;55.732;37.662;2022-08-21T13:05:56;9.45;;;6.82;;
74243;SDS011;62600;55.732;37.662;2022-08-21T13:08:23;12.50;;;6.25;;
74243;SDS011;62600;55.732;37.662;2022-08-21T13:10:56;9.70;;;6.50;;
74243;SDS011;62600;55.732;37.662;2022-08-21T13:13:25;11.23;;;5.57;;
74243;SDS011;62600;55.732;37.662;2022-08-21T13:15:56;9.52;;;6.00;;
74243;SDS011;62600;55.732;37.662;2022-08-21T13:18:34;14.98;;;6.72;;
74243;SDS011;62600;55.732;37.662;2022-08-21T13:21:05;11.57;;;7.20;;
74243;SDS011;62600;55.732;37.662;2022-08-21T13:23:35;12.68;;;7.18;;
74243;SDS011;62600;55.732;37.662;2022-08-21T13:26:00;14.68;;;8.07;;
74243;SDS011;62600;55.732;37.662;2022-08-21T13:28:36;13.68;;;8.00;;
74243;SDS011;62600;55.732;37.662;2022-08-21T13:31:05;18.33;;;8.23;;
74243;SDS011;62600;55.732;37.662;2022-08-21T13:33:35;13.77;;;7.55;;
74243;SDS011;62600;55.732;37.662;2022-08-21T13:38:33;11.18;;;6.85;;
74243;SDS011;62600;55.732;37.662;2022-08-21T13:41:19;11.38;;;6.85;;
74243;SDS011;62600;55.732;37.662;2022-08-21T13:43:58;12.75;;;7.15;;
74243;SDS011;62600;55.732;37.662;2022-08-21T13:49:10;13.15;;;7.25;;
74243;SDS011;62600;55.732;37.662;2022-08-21T13:51:40;13.90;;;8.38;;
74243;SDS011;62600;55.732;37.662;2022-08-21T13:54:23;11.82;;;7.60;;
74243;SDS011;62600;55.732;37.662;2022-08-21T13:57:01;11.43;;;7.32;;
74243;SDS011;62600;55.732;37.662;2022-08-21T13:59:28;12.27;;;6.25;;
74243;SDS011;62600;55.732;37.662;2022-08-21T14:01:59;16.02;;;6.55;;
74243;SDS011;62600;55.732;37.662;2022-08-21T14:04:41;10.40;;;6.13;;
74243;SDS011;62600;55.732;37.662;2022-08-21T14:07:15;12.40;;;6.07;;
74243;SDS011;62600;55.732;37.662;2022-08-21T14:09:44;14.38;;;5.68;;
74243;SDS011;62600;55.732;37.662;2022-08-21T14:12:12;7.25;;;3.63;;
74243;SDS011;62600;55.732;37.662;2022-08-21T14:14:42;8.90;;;4.20;;
74243;SDS011;62600;55.732;37.662;2022-08-21T14:19:38;7.13;;;3.63;;
74243;SDS011;62600;55.732;37.662;2022-08-21T14:25:14;10.30;;;4.20;;
74243;SDS011;62600;55.732;37.662;2022-08-21T14:32:55;4.93;;;3.40;;
74243;SDS011;62600;55.732;37.662;2022-08-21T14:35:21;8.50;;;3.92;;
74243;SDS011;62600;55.732;37.662;2022-08-21T14:37:47;8.40;;;2.78;;
74243;SDS011;62600;55.732;37.662;2022-08-21T14:40:18;5.18;;;2.83;;
74243;SDS011;62600;55.732;37.662;2022-08-21T14:42:45;5.85;;;2.85;;
74243;SDS011;62600;55.732;37.662;2022-08-21T14:45:18;6.30;;;3.03;;
74243;SDS011;62600;55.732;37.662;2022-08-21T14:47:45;2.95;;;2.28;;
74243;SDS011;62600;55.732;37.662;2022-08-21T14:50:11;7.22;;;2.00;;
74243;SDS011;62600;55.732;37.662;2022-08-21T14:52:38;8.25;;;2.28;;
74243;SDS011;62600;55.732;37.662;2022-08-21T14:55:05;5.32;;;1.95;;
74243;SDS011;62600;55.732;37.662;2022-08-21T14:57:33;5.63;;;1.90;;
74243;SDS011;62600;55.732;37.662;2022-08-21T15:00:00;2.67;;;1.83;;
74243;SDS011;62600;55.732;37.662;2022-08-21T15:02:25;2.80;;;1.55;;
74243;SDS011;62600;55.732;37.662;2022-08-21T15:04:51;4.70;;;2.03;;
74243;SDS011;62600;55.732;37.662;2022-08-21T15:07:17;3.22;;;1.50;;
74243;SDS011;62600;55.732;37.662;2022-08-21T15:09:42;3.53;;;1.67;;
74243;SDS011;62600;55.732;37.662;2022-08-21T15:12:08;6.00;;;1.90;;
74243;SDS011;62600;55.732;37.662;2022-08-21T15:17:03;5.60;;;1.80;;
74243;SDS011;62600;55.732;37.662;2022-08-21T15:19:31;3.90;;;1.75;;
74243;SDS011;62600;55.732;37.662;2022-08-21T15:21:57;6.70;;;1.70;;
74243;SDS011;62600;55.732;37.662;2022-08-21T15:24:22;6.22;;;1.83;;
74243;SDS011;62600;55.732;37.662;2022-08-21T15:26:48;6.85;;;2.30;;
74243;SDS011;62600;55.732;37.662;2022-08-21T15:29:14;3.00;;;1.85;;
74243;SDS011;62600;55.732;37.662;2022-08-21T15:31:49;7.30;;;1.55;;
74243;SDS011;62600;55.732;37.662;2022-08-21T15:34:23;3.55;;;1.70;;
74243;SDS011;62600;55.732;37.662;2022-08-21T15:36:50;6.13;;;1.80;;
74243;SDS011;62600;55.732;37.662;2022-08-21T15:39:15;4.20;;;1.77;;
74243;SDS011;62600;55.732;37.662;2022-08-21T15:41:41;5.75;;;1.70;;
74243;SDS011;62600;55.732;37.662;2022-08-21T15:44:08;3.60;;;1.95;;
74243;SDS011;62600;55.732;37.662;2022-08-21T15:46:34;3.65;;;1.50;;
74243;SDS011;62600;55.732;37.662;2022-08-21T15:49:02;7.13;;;1.70;;
74243;SDS011;62600;55.732;37.662;2022-08-21T15:51:27;5.65;;;1.85;;
74243;SDS011;62600;55.732;37.662;2022-08-21T15:53:53;4.78;;;1.60;;
74243;SDS011;62600;55.732;37.662;2022-08-21T15:56:23;5.22;;;1.90;;
74243;SDS011;62600;55.732;37.662;2022-08-21T15:58:50;3.80;;;1.98;;
74243;SDS011;62600;55.732;37.662;2022-08-21T16:01:23;6.40;;;2.13;;
74243;SDS011;62600;55.732;37.662;2022-08-21T16:03:49;6.45;;;1.90;;
74243;SDS011;62600;55.732;37.662;2022-08-21T16:06:17;6.53;;;2.15;;
74243;SDS011;62600;55.732;37.662;2022-08-21T16:08:42;8.18;;;2.17;;
74243;SDS011;62600;55.732;37.662;2022-08-21T16:11:08;5.40;;;1.63;;
74243;SDS011;62600;55.732;37.662;2022-08-21T16:13:37;5.80;;;1.48;;
74243;SDS011;62600;55.732;37.662;2022-08-21T16:16:08;6.47;;;1.67;;
74243;SDS011;62600;55.732;37.662;2022-08-21T16:18:35;4.38;;;1.85;;
74243;SDS011;62600;55.732;37.662;2022-08-21T16:21:01;3.45;;;1.73;;
74243;SDS011;62600;55.732;37.662;2022-08-21T16:23:27;8.13;;;1.90;;
74243;SDS011;62600;55.732;37.662;2022-08-21T16:25:53;6.57;;;1.80;;
74243;SDS011;62600;55.732;37.662;2022-08-21T16:28:19;7.78;;;1.90;;
74243;SDS011;62600;55.732;37.662;2022-08-21T16:30:46;5.07;;;2.20;;
74243;SDS011;62600;55.732;37.662;2022-08-21T16:36:02;3.40;;;2.50;;
74243;SDS011;62600;55.732;37.662;2022-08-21T16:38:28;10.15;;;2.90;;